Time;durP1;ratioP1;P1;durP2;ratioP2;P2;SDS_P1;SDS_P2;PMS_P1;PMS_P2;Temp;Humidity;BMP_temperature;BMP_pressure;BME280_temperature;BME280_humidity;BME280_pressure;Samples;Min_cycle;Max_cycle;Signal;HPM_P1;HPM_P2
2022/07/21 00:01:47;;;;;;;17.42;11.07;;;21.40;99.90;;;;;;5091189;28;20079;-67
2022/07/21 00:04:12;;;;;;;14.52;10.68;;;21.40;99.90;;;;;;5092019;28;20051;-67
2022/07/21 00:06:38;;;;;;;22.05;11.00;;;21.20;99.90;;;;;;5092034;28;20578;-67
2022/07/21 00:09:04;;;;;;;13.98;10.18;;;21.30;99.90;;;;;;5092192;28;20111;-66
2022/07/21 00:11:29;;;;;;;16.58;10.68;;;21.30;99.90;;;;;;5091970;28;20403;-66
2022/07/21 00:13:55;;;;;;;15.65;9.40;;;21.40;99.90;;;;;;5091813;28;20035;-67
2022/07/21 00:16:21;;;;;;;18.13;10.30;;;21.40;99.90;;;;;;5092723;28;20048;-67
2022/07/21 00:18:47;;;;;;;19.00;11.10;;;21.50;99.90;;;;;;5091872;28;20067;-67
2022/07/21 00:21:12;;;;;;;20.52;11.20;;;21.40;99.90;;;;;;5091782;28;20492;-67
2022/07/21 00:23:39;;;;;;;17.42;10.82;;;21.40;99.90;;;;;;5091482;28;20222;-67
2022/07/21 00:26:05;;;;;;;19.77;12.02;;;21.40;99.90;;;;;;5091687;28;20082;-66
2022/07/21 00:28:30;;;;;;;19.67;11.73;;;21.40;99.90;;;;;;5090435;28;20044;-67
2022/07/21 00:30:56;;;;;;;15.90;11.43;;;21.30;99.90;;;;;;5090627;28;20040;-67
2022/07/21 00:33:22;;;;;;;16.33;10.82;;;21.30;99.90;;;;;;5091324;28;20043;-66
2022/07/21 00:35:48;;;;;;;23.10;11.65;;;21.30;99.90;;;;;;5090239;28;20083;-66
2022/07/21 00:38:14;;;;;;;21.48;11.18;;;21.20;99.90;;;;;;5091642;28;20044;-67
2022/07/21 00:40:39;;;;;;;20.15;10.98;;;21.20;99.90;;;;;;5089969;28;20055;-66
2022/07/21 00:43:05;;;;;;;22.67;12.02;;;21.10;99.90;;;;;;5091170;28;20040;-67
2022/07/21 00:45:31;;;;;;;20.65;11.52;;;21.20;99.90;;;;;;5091536;28;20074;-66
2022/07/21 00:47:57;;;;;;;20.05;11.57;;;21.00;99.90;;;;;;5091104;28;20062;-66
2022/07/21 00:50:23;;;;;;;20.05;11.32;;;21.00;99.90;;;;;;5091592;28;20517;-66
2022/07/21 00:52:49;;;;;;;21.02;12.00;;;20.90;99.90;;;;;;5090849;28;20480;-66
2022/07/21 00:55:18;;;;;;;21.20;11.55;;;20.90;99.90;;;;;;5091176;28;20503;-66
2022/07/21 00:57:45;;;;;;;17.08;10.95;;;20.90;99.90;;;;;;5091268;28;20047;-66
2022/07/21 01:00:16;;;;;;;21.25;11.40;;;20.90;99.90;;;;;;5091297;28;20047;-67
2022/07/21 01:02:42;;;;;;;19.00;12.30;;;20.80;99.90;;;;;;5093437;28;20043;-67
2022/07/21 01:05:14;;;;;;;21.13;12.27;;;20.90;99.90;;;;;;5098844;28;20032;-67
2022/07/21 01:07:41;;;;;;;23.38;13.02;;;20.90;99.90;;;;;;5092183;28;20028;-67
2022/07/21 01:10:08;;;;;;;21.00;12.73;;;20.90;99.90;;;;;;5090938;28;20036;-67
2022/07/21 01:12:34;;;;;;;24.45;12.77;;;20.70;99.90;;;;;;5091074;28;20051;-66
2022/07/21 01:15:00;;;;;;;20.05;13.55;;;20.80;99.90;;;;;;5091151;28;20096;-67
2022/07/21 01:17:26;;;;;;;21.88;13.35;;;20.80;99.90;;;;;;5091244;28;20465;-67
2022/07/21 01:19:52;;;;;;;19.27;13.10;;;20.80;99.90;;;;;;5090899;28;20044;-67
2022/07/21 01:22:18;;;;;;;20.10;13.88;;;20.80;99.90;;;;;;5090491;28;20797;-67
2022/07/21 01:24:43;;;;;;;19.88;13.40;;;20.80;99.90;;;;;;5090741;28;20059;-67
2022/07/21 01:27:09;;;;;;;20.70;13.15;;;20.70;99.90;;;;;;5091092;28;20032;-66
2022/07/21 01:29:35;;;;;;;21.90;13.55;;;20.70;99.90;;;;;;5091611;28;20070;-67
2022/07/21 01:32:02;;;;;;;23.63;14.07;;;20.70;99.90;;;;;;5092023;28;20487;-67
2022/07/21 01:34:28;;;;;;;22.25;13.73;;;20.70;99.90;;;;;;5091092;28;20063;-66
2022/07/21 01:36:53;;;;;;;25.60;15.43;;;20.70;99.90;;;;;;5090612;28;20381;-66
2022/07/21 01:42:03;;;;;;;19.63;14.02;;;20.70;99.90;;;;;;5090589;28;20056;-66
2022/07/21 01:44:29;;;;;;;19.77;13.00;;;20.70;99.90;;;;;;5090562;28;20040;-66
2022/07/21 01:46:55;;;;;;;22.60;13.18;;;20.70;99.90;;;;;;5090525;28;20116;-66
2022/07/21 01:49:21;;;;;;;22.15;13.52;;;20.70;99.90;;;;;;5090658;28;20082;-67
2022/07/21 01:51:48;;;;;;;22.45;14.70;;;20.70;99.90;;;;;;5089399;28;20412;-66
2022/07/21 01:54:14;;;;;;;20.23;12.60;;;20.60;99.90;;;;;;5090326;28;20047;-67
2022/07/21 01:56:40;;;;;;;19.23;13.25;;;20.50;99.90;;;;;;5090292;28;20111;-67
2022/07/21 01:59:06;;;;;;;17.48;12.68;;;20.60;99.90;;;;;;5090378;28;20522;-67
2022/07/21 02:01:33;;;;;;;19.95;12.65;;;20.60;99.90;;;;;;5090503;28;20123;-67
2022/07/21 02:04:01;;;;;;;18.05;12.43;;;20.60;99.90;;;;;;5090212;28;20051;-67
2022/07/21 02:06:26;;;;;;;19.25;11.75;;;20.50;99.90;;;;;;5090252;28;20036;-67
2022/07/21 02:08:52;;;;;;;17.35;11.50;;;20.60;99.90;;;;;;5090301;28;20036;-67
2022/07/21 02:11:19;;;;;;;17.80;11.13;;;20.60;99.90;;;;;;5093823;28;20508;-67
2022/07/21 02:13:46;;;;;;;17.02;10.75;;;20.70;99.90;;;;;;5093797;28;20086;-66
2022/07/21 02:16:12;;;;;;;12.63;9.20;;;20.60;99.90;;;;;;5090658;28;20044;-67
2022/07/21 02:18:37;;;;;;;15.50;10.10;;;20.50;99.90;;;;;;5090464;28;20108;-67
2022/07/21 02:21:04;;;;;;;12.77;9.63;;;20.50;99.90;;;;;;5090114;28;20040;-68
2022/07/21 02:23:30;;;;;;;17.30;10.32;;;20.50;99.90;;;;;;5090016;28;20120;-67
2022/07/21 02:25:56;;;;;;;19.05;10.02;;;20.50;99.90;;;;;;5090175;28;20115;-67
2022/07/21 02:28:22;;;;;;;17.60;10.75;;;20.50;99.90;;;;;;5090388;28;20417;-67
2022/07/21 02:30:48;;;;;;;13.25;9.32;;;20.50;99.90;;;;;;5090402;28;20044;-66
2022/07/21 02:33:14;;;;;;;13.77;9.93;;;20.50;99.90;;;;;;5088564;28;20498;-67
2022/07/21 02:35:40;;;;;;;15.77;9.80;;;20.50;99.90;;;;;;5090190;28;20032;-66
2022/07/21 02:38:06;;;;;;;13.35;9.65;;;20.50;99.90;;;;;;5090205;28;20036;-67
2022/07/21 02:40:32;;;;;;;13.05;10.30;;;20.50;99.90;;;;;;5089494;28;20449;-67
2022/07/21 02:42:58;;;;;;;13.43;10.07;;;20.50;99.90;;;;;;5091776;28;20078;-67
2022/07/21 02:45:24;;;;;;;13.48;9.55;;;20.50;99.90;;;;;;5095776;28;20031;-67
2022/07/21 02:47:54;;;;;;;12.60;9.38;;;20.50;99.90;;;;;;5101174;28;20097;-67
2022/07/21 02:50:22;;;;;;;12.95;9.05;;;20.40;99.90;;;;;;5097493;28;20040;-67
2022/07/21 02:52:48;;;;;;;13.57;9.65;;;20.40;99.90;;;;;;5093330;28;20036;-67
2022/07/21 02:55:14;;;;;;;12.95;9.40;;;20.30;99.90;;;;;;5093454;28;20127;-67
2022/07/21 02:57:40;;;;;;;12.88;10.35;;;20.30;99.90;;;;;;5093756;28;20040;-67
2022/07/21 03:00:08;;;;;;;13.90;10.30;;;20.40;99.90;;;;;;5092124;28;20262;-67
2022/07/21 03:02:34;;;;;;;13.60;10.23;;;20.40;99.90;;;;;;5093371;28;20157;-67
2022/07/21 03:04:59;;;;;;;13.05;10.18;;;20.30;99.90;;;;;;5093461;28;20559;-67
2022/07/21 03:07:25;;;;;;;16.95;10.65;;;20.30;99.90;;;;;;5092131;28;20136;-67
2022/07/21 03:09:51;;;;;;;15.93;11.60;;;20.30;99.90;;;;;;5093244;28;20040;-67
2022/07/21 03:12:16;;;;;;;17.95;11.00;;;20.20;99.90;;;;;;5093294;28;20040;-67
2022/07/21 03:14:42;;;;;;;18.70;11.70;;;20.30;99.90;;;;;;5093344;28;20068;-67
2022/07/21 03:17:07;;;;;;;16.58;12.55;;;20.20;99.90;;;;;;5093199;28;20050;-67
2022/07/21 03:19:33;;;;;;;18.23;12.90;;;20.20;99.90;;;;;;5098121;28;20112;-67
2022/07/21 03:21:59;;;;;;;19.15;13.68;;;20.20;99.90;;;;;;5096186;28;20093;-67
2022/07/21 03:24:25;;;;;;;18.67;13.82;;;20.20;99.90;;;;;;5091469;28;20639;-66
2022/07/21 03:26:50;;;;;;;22.73;15.05;;;20.20;99.90;;;;;;5093103;28;20036;-66
2022/07/21 03:29:16;;;;;;;22.35;16.50;;;20.20;99.90;;;;;;5091866;28;20489;-67
2022/07/21 03:31:41;;;;;;;25.45;16.27;;;20.20;99.90;;;;;;5092930;28;20040;-67
2022/07/21 03:34:07;;;;;;;24.23;16.30;;;20.20;99.90;;;;;;5092580;28;20577;-67
2022/07/21 03:36:33;;;;;;;19.35;15.82;;;20.10;99.90;;;;;;5092754;28;20704;-67
2022/07/21 03:38:58;;;;;;;22.17;16.45;;;20.10;99.90;;;;;;5092723;28;20412;-67
2022/07/21 03:41:24;;;;;;;24.15;16.33;;;20.20;99.90;;;;;;5092915;28;20557;-67
2022/07/21 03:43:49;;;;;;;21.67;17.02;;;20.20;99.90;;;;;;5092345;28;20123;-67
2022/07/21 03:46:15;;;;;;;23.10;17.40;;;20.20;99.90;;;;;;5092773;28;20043;-67
2022/07/21 03:48:40;;;;;;;24.52;18.65;;;20.20;99.90;;;;;;5091073;28;20384;-67
2022/07/21 03:51:06;;;;;;;26.98;19.10;;;20.20;99.90;;;;;;5092537;28;20040;-67
2022/07/21 03:53:32;;;;;;;26.83;19.30;;;20.20;99.90;;;;;;5091826;28;20453;-67
2022/07/21 03:55:57;;;;;;;30.95;21.38;;;20.20;99.90;;;;;;5092311;28;20530;-67
2022/07/21 03:58:23;;;;;;;26.08;19.83;;;20.20;99.90;;;;;;5092537;28;20050;-68
2022/07/21 04:00:48;;;;;;;26.92;20.05;;;20.20;99.90;;;;;;5092454;28;20044;-68
2022/07/21 04:03:14;;;;;;;28.45;21.38;;;20.20;99.90;;;;;;5090121;28;20044;-67
2022/07/21 04:05:41;;;;;;;26.65;20.77;;;20.20;99.90;;;;;;5089505;28;20452;-68
2022/07/21 04:08:09;;;;;;;28.50;19.67;;;20.20;99.90;;;;;;5089725;28;20078;-68
2022/07/21 04:10:37;;;;;;;25.50;19.90;;;20.20;99.90;;;;;;5091385;28;20032;-68
2022/07/21 04:13:05;;;;;;;29.52;20.23;;;20.20;99.90;;;;;;5091360;28;20032;-68
2022/07/21 04:15:31;;;;;;;25.17;20.52;;;20.20;99.90;;;;;;5090971;28;20032;-67
2022/07/21 04:17:57;;;;;;;27.50;20.05;;;20.30;99.90;;;;;;5091004;28;20097;-67
2022/07/21 04:20:23;;;;;;;26.63;21.40;;;20.20;99.90;;;;;;5091766;28;20119;-68
2022/07/21 04:22:49;;;;;;;28.00;20.23;;;20.20;99.90;;;;;;5091840;28;20111;-68
2022/07/21 04:25:16;;;;;;;26.70;20.60;;;20.20;99.90;;;;;;5090807;28;20047;-68
2022/07/21 04:27:43;;;;;;;26.27;20.20;;;20.20;99.90;;;;;;5095024;28;20036;-68
2022/07/21 04:30:11;;;;;;;27.17;20.50;;;20.20;99.90;;;;;;5092763;28;20431;-67
2022/07/21 04:32:37;;;;;;;26.08;19.25;;;20.20;99.90;;;;;;5091491;28;20051;-68
2022/07/21 04:35:04;;;;;;;29.33;20.23;;;20.10;99.90;;;;;;5091459;28;20048;-67
2022/07/21 04:37:30;;;;;;;25.27;20.45;;;20.20;99.90;;;;;;5091879;28;20036;-68
2022/07/21 04:39:55;;;;;;;25.60;19.52;;;20.20;99.90;;;;;;5089754;28;20085;-67
2022/07/21 04:42:21;;;;;;;26.60;20.85;;;20.20;99.90;;;;;;5091251;28;20411;-67
2022/07/21 04:44:46;;;;;;;27.10;19.95;;;20.20;99.90;;;;;;5091639;28;20052;-68
2022/07/21 04:47:12;;;;;;;27.27;20.58;;;20.20;99.90;;;;;;5091588;28;20107;-68
2022/07/21 04:49:38;;;;;;;28.38;20.77;;;20.20;99.90;;;;;;5091459;28;20055;-68
2022/07/21 04:52:04;;;;;;;24.20;20.40;;;20.20;99.90;;;;;;5090365;28;20044;-68
2022/07/21 04:54:30;;;;;;;29.17;21.30;;;20.20;99.90;;;;;;5091089;28;20044;-68
2022/07/21 04:56:55;;;;;;;31.30;20.98;;;20.10;99.90;;;;;;5091297;28;20042;-68
2022/07/21 04:59:21;;;;;;;27.35;21.23;;;20.20;99.90;;;;;;5091407;28;20460;-68
2022/07/21 05:01:47;;;;;;;27.30;21.92;;;20.10;99.90;;;;;;5091471;28;20423;-68
2022/07/21 05:04:12;;;;;;;31.88;22.08;;;20.10;99.90;;;;;;5090843;28;20040;-67
2022/07/21 05:06:38;;;;;;;26.85;22.25;;;20.10;99.90;;;;;;5090230;28;20051;-67
2022/07/21 05:09:03;;;;;;;27.92;22.50;;;20.10;99.90;;;;;;5091039;28;20047;-67
2022/07/21 05:11:29;;;;;;;32.67;23.88;;;20.10;99.90;;;;;;5090965;28;20127;-68
2022/07/21 05:13:55;;;;;;;28.40;22.85;;;20.10;99.90;;;;;;5090732;28;20074;-67
2022/07/21 05:16:21;;;;;;;36.38;24.42;;;20.20;99.90;;;;;;5091069;28;20044;-68
2022/07/21 05:18:47;;;;;;;32.97;24.65;;;20.20;99.90;;;;;;5090948;28;20043;-68
2022/07/21 05:21:12;;;;;;;28.23;23.73;;;20.20;99.90;;;;;;5091754;28;20128;-68
2022/07/21 05:23:38;;;;;;;34.55;24.88;;;20.20;99.90;;;;;;5090911;28;20051;-68
2022/07/21 05:26:03;;;;;;;31.83;23.52;;;20.30;99.90;;;;;;5090823;28;20036;-68
2022/07/21 05:28:29;;;;;;;35.60;23.70;;;20.30;99.90;;;;;;5090965;28;20070;-67
2022/07/21 05:30:55;;;;;;;31.80;24.77;;;20.40;99.90;;;;;;5089429;28;20096;-67
2022/07/21 05:33:20;;;;;;;31.42;24.30;;;20.40;99.90;;;;;;5090925;28;20044;-68
2022/07/21 05:35:46;;;;;;;32.00;23.52;;;20.40;99.90;;;;;;5092736;28;20048;-68
2022/07/21 05:38:11;;;;;;;30.50;23.77;;;20.40;99.90;;;;;;5091464;28;20054;-67
2022/07/21 05:40:37;;;;;;;29.02;22.75;;;20.60;99.90;;;;;;5090004;28;20035;-67
2022/07/21 05:43:03;;;;;;;28.27;22.02;;;20.70;99.90;;;;;;5090539;28;20051;-67
2022/07/21 05:45:28;;;;;;;30.10;20.90;;;20.80;99.90;;;;;;5089237;28;20043;-67
2022/07/21 05:47:54;;;;;;;26.67;21.27;;;20.80;99.90;;;;;;5090760;28;20036;-67
2022/07/21 05:50:19;;;;;;;27.00;21.38;;;20.90;99.90;;;;;;5086414;28;20106;-67
2022/07/21 05:52:45;;;;;;;27.70;21.02;;;21.00;99.90;;;;;;5070031;28;20116;-67
2022/07/21 05:55:11;;;;;;;25.50;19.83;;;21.00;99.90;;;;;;5070197;28;20432;-67
2022/07/21 05:57:38;;;;;;;25.77;20.45;;;20.90;99.90;;;;;;5070419;28;20072;-67
2022/07/21 06:00:04;;;;;;;26.92;20.05;;;20.80;99.90;;;;;;5070366;28;20127;-67
2022/07/21 06:02:31;;;;;;;24.90;20.40;;;20.80;99.90;;;;;;5068640;28;20129;-67
2022/07/21 06:04:57;;;;;;;26.30;21.30;;;20.70;99.90;;;;;;5070093;28;20564;-67
2022/07/21 06:07:23;;;;;;;26.17;20.38;;;20.60;99.90;;;;;;5070168;28;20116;-67
2022/07/21 06:09:48;;;;;;;28.77;20.13;;;20.60;99.90;;;;;;5070331;28;20060;-67
2022/07/21 06:12:14;;;;;;;24.92;19.98;;;20.50;99.90;;;;;;5070036;28;20036;-67
2022/07/21 06:14:40;;;;;;;28.17;22.02;;;20.50;99.90;;;;;;5070132;28;20505;-67
2022/07/21 06:17:05;;;;;;;28.00;20.48;;;20.40;99.90;;;;;;5070798;28;20047;-68
2022/07/21 06:19:31;;;;;;;27.13;20.70;;;20.40;99.90;;;;;;5074019;28;20123;-67
2022/07/21 06:21:57;;;;;;;27.73;20.63;;;20.40;99.90;;;;;;5073809;28;20059;-67
2022/07/21 06:24:23;;;;;;;25.85;21.40;;;20.30;99.90;;;;;;5073541;28;20496;-67
2022/07/21 06:26:49;;;;;;;29.88;22.08;;;20.30;99.90;;;;;;5073976;28;20496;-67
2022/07/21 06:29:14;;;;;;;27.90;21.20;;;20.40;99.90;;;;;;5073902;28;20032;-67
2022/07/21 06:31:40;;;;;;;28.30;22.05;;;20.40;99.90;;;;;;5073810;28;20041;-67
2022/07/21 06:34:06;;;;;;;27.17;21.05;;;20.30;99.90;;;;;;5073298;28;20063;-67
2022/07/21 06:36:31;;;;;;;28.50;22.27;;;20.30;99.90;;;;;;5073688;28;20040;-67
2022/07/21 06:38:57;;;;;;;28.65;21.88;;;20.30;99.90;;;;;;5073558;28;20039;-67
2022/07/21 06:41:23;;;;;;;28.83;21.88;;;20.30;99.90;;;;;;5076026;28;20052;-68
2022/07/21 06:43:48;;;;;;;29.60;22.33;;;20.30;99.90;;;;;;5081028;28;20067;-68
2022/07/21 06:46:14;;;;;;;32.25;24.38;;;20.30;99.90;;;;;;5074160;28;20400;-67
2022/07/21 06:48:39;;;;;;;31.48;24.17;;;20.40;99.90;;;;;;5073415;28;20489;-67
2022/07/21 06:51:05;;;;;;;32.15;23.30;;;20.40;99.90;;;;;;5073339;28;20230;-67
2022/07/21 06:53:31;;;;;;;36.30;24.92;;;20.40;99.90;;;;;;5072965;28;20124;-67
2022/07/21 06:55:57;;;;;;;34.50;25.02;;;20.40;99.90;;;;;;5073415;28;20121;-67
2022/07/21 06:58:24;;;;;;;34.22;26.58;;;20.50;99.90;;;;;;5073091;28;20041;-70
2022/07/21 07:00:50;;;;;;;33.80;25.60;;;20.50;99.90;;;;;;5073131;28;20036;-69
2022/07/21 07:03:18;;;;;;;36.28;26.00;;;20.50;99.90;;;;;;5054600;28;20052;-69
2022/07/21 07:05:44;;;;;;;35.17;26.15;;;20.70;99.90;;;;;;5072990;28;20040;-69
2022/07/21 07:08:11;;;;;;;34.60;27.15;;;20.70;99.90;;;;;;5073183;28;20094;-70
2022/07/21 07:10:36;;;;;;;34.92;26.10;;;20.70;99.90;;;;;;5072927;28;20044;-69
2022/07/21 07:13:03;;;;;;;35.63;26.40;;;20.80;99.90;;;;;;5071129;28;20040;-69
2022/07/21 07:15:29;;;;;;;35.35;26.27;;;20.80;99.90;;;;;;5072938;28;20036;-70
2022/07/21 07:17:54;;;;;;;37.15;27.23;;;20.90;99.90;;;;;;5072625;28;20436;-70
2022/07/21 07:20:21;;;;;;;35.20;26.65;;;21.00;99.90;;;;;;5072782;28;20608;-69
2022/07/21 07:22:46;;;;;;;35.85;26.98;;;21.10;99.90;;;;;;5072295;28;20037;-70
2022/07/21 07:25:16;;;;;;;39.42;27.90;;;21.10;99.90;;;;;;5072615;28;20032;-70
2022/07/21 07:27:42;;;;;;;36.55;26.85;;;21.00;99.90;;;;;;5071218;28;20036;-70
2022/07/21 07:30:09;;;;;;;36.60;27.80;;;21.10;99.90;;;;;;5071327;28;20055;-69
2022/07/21 07:32:34;;;;;;;36.58;28.10;;;21.10;99.90;;;;;;5071118;28;20396;-70
2022/07/21 07:35:00;;;;;;;39.53;28.73;;;21.10;99.90;;;;;;5072089;28;20044;-69
2022/07/21 07:37:25;;;;;;;35.90;27.40;;;21.10;99.90;;;;;;5072160;28;20055;-69
2022/07/21 07:39:51;;;;;;;35.88;27.63;;;21.20;99.90;;;;;;5071521;28;20032;-70
2022/07/21 07:42:16;;;;;;;36.92;27.73;;;21.20;99.90;;;;;;5071830;28;20390;-67
2022/07/21 07:44:42;;;;;;;40.45;28.48;;;21.20;99.90;;;;;;5072249;28;20087;-70
2022/07/21 07:47:07;;;;;;;39.80;30.23;;;21.30;99.90;;;;;;5076284;28;20032;-69
2022/07/21 07:49:33;;;;;;;37.55;29.73;;;21.40;99.90;;;;;;5108042;28;20039;-69
2022/07/21 07:51:59;;;;;;;37.65;28.83;;;21.40;99.90;;;;;;5114959;28;20115;-69
2022/07/21 07:54:24;;;;;;;35.60;27.38;;;21.40;99.90;;;;;;5088972;28;20520;-70
2022/07/21 07:56:50;;;;;;;35.58;25.48;;;21.50;99.90;;;;;;5082229;28;20123;-69
2022/07/21 07:59:16;;;;;;;32.40;25.67;;;21.50;99.90;;;;;;5079664;28;20503;-69
2022/07/21 08:01:42;;;;;;;22.70;18.65;;;21.70;99.90;;;;;;5071779;28;20041;-69
2022/07/21 08:04:07;;;;;;;33.03;24.13;;;21.90;99.90;;;;;;5071308;28;20402;-69
2022/07/21 08:06:33;;;;;;;33.90;24.35;;;22.10;99.90;;;;;;5071844;28;20052;-69
2022/07/21 08:08:59;;;;;;;32.25;25.30;;;22.20;99.90;;;;;;5071627;28;20048;-68
2022/07/21 08:11:25;;;;;;;35.10;25.75;;;22.30;99.90;;;;;;5071672;28;20039;-69
2022/07/21 08:13:51;;;;;;;33.03;25.45;;;22.30;99.90;;;;;;5069755;28;20048;-69
2022/07/21 08:16:16;;;;;;;32.13;24.63;;;22.30;99.90;;;;;;5070192;28;20048;-69
2022/07/21 08:18:43;;;;;;;28.88;22.85;;;22.20;99.90;;;;;;5071790;28;20128;-68
2022/07/21 08:21:09;;;;;;;27.85;23.95;;;22.20;99.90;;;;;;5071622;28;20044;-68
2022/07/21 08:23:35;;;;;;;34.75;25.33;;;22.30;99.90;;;;;;5070882;28;20080;-69
2022/07/21 08:26:00;;;;;;;32.88;23.27;;;22.20;99.90;;;;;;5071585;28;20068;-69
2022/07/21 08:28:26;;;;;;;32.42;24.92;;;22.30;99.90;;;;;;5069959;28;20048;-69
2022/07/21 08:30:52;;;;;;;32.47;22.77;;;22.40;99.90;;;;;;5070310;28;20037;-69
2022/07/21 08:33:18;;;;;;;30.10;22.30;;;22.40;99.90;;;;;;5071283;28;20036;-68
2022/07/21 08:35:43;;;;;;;35.97;23.50;;;22.50;99.90;;;;;;5071508;28;20464;-69
2022/07/21 08:38:11;;;;;;;29.60;22.77;;;22.70;99.90;;;;;;5071449;28;20068;-69
2022/07/21 08:40:41;;;;;;;30.95;22.27;;;22.70;99.90;;;;;;5069681;28;20090;-69
2022/07/21 08:43:08;;;;;;;28.85;22.95;;;22.80;99.90;;;;;;5070939;28;20036;-70
2022/07/21 08:45:35;;;;;;;31.98;24.13;;;22.80;99.90;;;;;;5071400;28;20048;-70
2022/07/21 08:48:01;;;;;;;30.83;23.15;;;22.90;99.90;;;;;;5071042;28;20124;-70
2022/07/21 08:50:30;;;;;;;32.70;23.92;;;22.90;99.90;;;;;;5069660;28;20120;-70
2022/07/21 08:52:55;;;;;;;32.42;23.45;;;22.90;99.90;;;;;;5070837;28;20095;-70
2022/07/21 08:55:22;;;;;;;33.17;23.45;;;23.00;99.90;;;;;;5070986;28;20041;-70
2022/07/21 08:57:47;;;;;;;32.67;24.67;;;22.90;99.90;;;;;;5075595;28;20048;-70
2022/07/21 09:00:13;;;;;;;30.33;23.95;;;23.00;99.90;;;;;;5090621;28;20044;-70
2022/07/21 09:02:39;;;;;;;34.95;24.33;;;23.00;99.90;;;;;;5091351;28;20044;-70
2022/07/21 09:05:08;;;;;;;28.95;21.33;;;22.90;99.90;;;;;;5091057;28;20059;-70
2022/07/21 09:07:51;;;;;;;30.63;21.42;;;22.80;99.90;;;;;;5091036;28;20040;-70
2022/07/21 09:10:23;;;;;;;32.83;22.52;;;22.70;99.90;;;;;;5090863;28;20531;-70
2022/07/21 09:13:01;;;;;;;36.72;23.58;;;22.70;99.90;;;;;;5091155;28;20046;-68
2022/07/21 09:15:28;;;;;;;28.63;22.80;;;22.70;99.90;;;;;;5093257;28;20111;-67
2022/07/21 09:18:09;;;;;;;30.77;24.23;;;22.50;99.90;;;;;;5091074;28;20044;-68
2022/07/21 09:20:35;;;;;;;29.95;22.88;;;22.40;99.90;;;;;;5089321;28;20067;-68
2022/07/21 09:23:10;;;;;;;32.85;24.90;;;22.40;99.90;;;;;;5080821;28;20044;-68
2022/07/21 09:25:45;;;;;;;34.17;23.52;;;22.20;99.90;;;;;;5076430;28;20115;-68
2022/07/21 09:28:17;;;;;;;31.02;23.45;;;22.30;99.90;;;;;;5077385;28;20032;-68
2022/07/21 09:30:53;;;;;;;;;;;22.30;99.90;;;;;;5079383;28;20373;-68
2022/07/21 09:33:22;;;;;;;30.15;22.20;;;22.20;99.90;;;;;;5070996;28;19927;-68
2022/07/21 09:36:00;;;;;;;31.38;22.38;;;22.50;99.90;;;;;;5070547;28;20064;-68
2022/07/21 09:38:26;;;;;;;27.75;21.50;;;22.90;99.90;;;;;;5070481;28;20032;-68
2022/07/21 09:40:53;;;;;;;29.38;22.52;;;23.00;99.90;;;;;;5070318;28;20043;-67
2022/07/21 09:43:32;;;;;;;32.60;23.27;;;22.80;99.90;;;;;;5068714;28;20051;-68
2022/07/21 09:46:03;;;;;;;33.08;23.17;;;22.60;99.90;;;;;;5070598;28;20720;-67
2022/07/21 09:48:37;;;;;;;34.78;23.85;;;22.60;99.90;;;;;;5070457;28;20127;-67
2022/07/21 09:51:24;;;;;;;36.53;24.08;;;22.60;99.90;;;;;;5102978;28;20099;-67
2022/07/21 09:53:56;;;;;;;30.55;23.58;;;22.30;99.90;;;;;;5076660;28;20471;-67
2022/07/21 09:56:22;;;;;;;36.30;24.98;;;22.30;99.90;;;;;;5077138;28;20049;-70
2022/07/21 09:58:50;;;;;;;34.28;23.63;;;22.30;99.90;;;;;;5075519;28;20041;-70
2022/07/21 10:01:16;;;;;;;35.08;25.23;;;22.30;99.90;;;;;;5076989;28;20056;-70
2022/07/21 10:03:44;;;;;;;39.38;25.85;;;22.20;99.90;;;;;;5076632;28;20037;-70
2022/07/21 10:06:10;;;;;;;38.47;25.63;;;22.20;99.90;;;;;;5089361;28;20037;-71
2022/07/21 10:08:37;;;;;;;36.92;25.30;;;22.20;99.90;;;;;;5092171;28;20085;-71
2022/07/21 10:11:03;;;;;;;44.40;29.30;;;22.20;99.90;;;;;;5077163;28;20040;-69
2022/07/21 10:13:28;;;;;;;40.92;26.73;;;22.20;99.90;;;;;;5074859;28;20040;-69
2022/07/21 10:15:54;;;;;;;40.03;28.67;;;22.20;99.90;;;;;;5076733;28;20039;-69
2022/07/21 10:18:30;;;;;;;42.50;29.10;;;22.00;99.90;;;;;;5075177;28;20040;-70
2022/07/21 10:21:04;;;;;;;41.45;28.90;;;22.00;99.90;;;;;;5076573;28;20028;-70
2022/07/21 10:23:41;;;;;;;41.03;28.40;;;21.80;99.90;;;;;;5076176;28;20115;-70
2022/07/21 10:26:07;;;;;;;46.20;30.85;;;21.80;99.90;;;;;;5075357;28;20528;-70
2022/07/21 10:28:34;;;;;;;40.97;29.05;;;21.80;99.90;;;;;;5075075;28;20083;-70
2022/07/21 10:31:22;;;;;;;41.47;29.38;;;21.80;99.90;;;;;;5076765;28;20086;-70
2022/07/21 10:33:48;;;;;;;45.30;31.38;;;21.90;99.90;;;;;;5093515;28;20052;-70
2022/07/21 10:36:36;;;;;;;38.83;27.65;;;21.80;99.90;;;;;;5076135;28;20495;-71
2022/07/21 10:39:10;;;;;;;46.08;29.55;;;22.00;99.90;;;;;;5076676;28;20080;-70
2022/07/21 10:41:40;;;;;;;45.53;30.73;;;22.10;99.90;;;;;;5109444;28;20041;-70
2022/07/21 10:44:27;;;;;;;44.25;29.33;;;22.20;99.90;;;;;;5074667;28;20044;-70
2022/07/21 10:47:04;;;;;;;40.42;28.58;;;22.20;99.90;;;;;;5075002;28;20040;-70
2022/07/21 10:49:52;;;;;;;42.42;29.15;;;22.20;99.90;;;;;;5074820;28;20049;-70
2022/07/21 10:52:49;;;;;;;39.60;29.17;;;22.20;99.90;;;;;;5108838;28;20036;-71
2022/07/21 10:55:28;;;;;;;1081.03;116.45;;;22.30;99.90;;;;;;5090418;28;20075;-70
2022/07/21 10:58:28;;;;;;;64.50;27.23;;;22.40;99.90;;;;;;5073856;28;20624;-71
2022/07/21 11:01:04;;;;;;;46.97;25.17;;;22.60;99.90;;;;;;5073738;28;20056;-70
2022/07/21 11:03:31;;;;;;;35.88;23.30;;;22.60;99.90;;;;;;5055481;28;20127;-70
2022/07/21 11:06:16;;;;;;;36.28;25.08;;;22.80;99.90;;;;;;5054083;28;20581;-70
2022/07/21 11:08:43;;;;;;;36.10;24.67;;;23.00;99.90;;;;;;5070373;28;20041;-71
2022/07/21 11:11:10;;;;;;;35.88;24.88;;;23.20;99.90;;;;;;5070573;28;20045;-71
2022/07/21 11:13:58;;;;;;;34.92;23.65;;;23.10;99.90;;;;;;5070697;28;20087;-70
2022/07/21 11:17:02;;;;;;;29.75;21.23;;;23.30;99.90;;;;;;5075223;28;20076;-70
2022/07/21 11:19:35;;;;;;;33.70;23.98;;;23.50;99.90;;;;;;5053317;28;20052;-70
2022/07/21 11:22:12;;;;;;;32.72;22.88;;;23.60;99.90;;;;;;5053536;28;20131;-70
2022/07/21 11:24:40;;;;;;;31.00;23.75;;;23.70;99.90;;;;;;5053189;28;20123;-71
2022/07/21 11:27:10;;;;;;;33.63;24.17;;;23.70;99.90;;;;;;5072924;28;20040;-69
2022/07/21 11:29:37;;;;;;;31.30;24.35;;;23.70;99.90;;;;;;5072997;28;20428;-70
2022/07/21 11:32:04;;;;;;;32.20;24.25;;;23.80;99.90;;;;;;5061324;28;20082;-70
2022/07/21 11:34:48;;;;;;;30.88;22.80;;;23.70;99.90;;;;;;5072297;28;20481;-70
2022/07/21 11:37:25;;;;;;;29.83;22.27;;;23.70;99.90;;;;;;5071150;28;20094;-70
2022/07/21 11:39:51;;;;;;;29.17;22.10;;;23.60;99.90;;;;;;5071176;28;20090;-70
2022/07/21 11:42:17;;;;;;;33.53;24.05;;;23.60;99.90;;;;;;5070774;28;20040;-71
2022/07/21 11:44:44;;;;;;;33.97;23.42;;;23.40;99.90;;;;;;5074280;28;20374;-70
2022/07/21 11:47:14;;;;;;;30.75;23.15;;;23.40;99.90;;;;;;5081303;28;20036;-71
2022/07/21 11:49:42;;;;;;;31.25;25.25;;;23.30;99.90;;;;;;5082936;28;20041;-70
2022/07/21 11:52:10;;;;;;;31.80;24.80;;;23.20;99.90;;;;;;5079011;28;20040;-71
2022/07/21 11:54:42;;;;;;;38.63;24.42;;;23.00;99.90;;;;;;5072177;28;20067;-71
2022/07/21 11:57:08;;;;;;;34.28;25.30;;;23.00;99.90;;;;;;5072065;28;20500;-71
2022/07/21 11:59:36;;;;;;;37.30;24.17;;;23.00;99.90;;;;;;5070612;28;20044;-70
2022/07/21 12:02:08;;;;;;;36.58;26.58;;;23.00;99.90;;;;;;5072968;28;20521;-71
2022/07/21 12:04:41;;;;;;;36.63;26.17;;;22.90;99.90;;;;;;5070164;28;20102;-70
2022/07/21 12:07:25;;;;;;;33.05;22.90;;;23.00;99.90;;;;;;5070939;28;20728;-71
2022/07/21 12:10:29;;;;;;;27.08;20.65;;;22.90;99.90;;;;;;5070425;28;20063;-72
2022/07/21 12:13:04;;;;;;;28.50;18.08;;;22.90;99.90;;;;;;5071730;28;20083;-71
2022/07/21 12:15:33;;;;;;;20.13;16.23;;;23.00;99.90;;;;;;5069926;28;20076;-71
2022/07/21 12:18:20;;;;;;;25.33;17.65;;;23.00;99.90;;;;;;5070374;28;20049;-71
2022/07/21 12:20:46;;;;;;;23.98;16.08;;;22.90;99.90;;;;;;5078507;28;20115;-71
2022/07/21 12:23:28;;;;;;;26.20;16.25;;;22.80;99.90;;;;;;5098273;28;20493;-73
2022/07/21 12:25:55;;;;;;;21.50;16.23;;;22.80;99.90;;;;;;5100782;28;20055;-72
2022/07/21 12:28:20;;;;;;;16.60;12.20;;;22.70;99.90;;;;;;5079468;28;20072;-70
2022/07/21 12:30:49;;;;;;;14.18;10.13;;;22.90;99.90;;;;;;5081715;28;20484;-71
2022/07/21 12:33:18;;;;;;;11.30;9.60;;;22.80;99.90;;;;;;5090191;28;20036;-70
2022/07/21 12:35:56;;;;;;;12.57;9.07;;;22.90;99.90;;;;;;5090237;28;20048;-71